createdAt,value
2023-04-10T00:02:56.857Z,14.33
2023-04-10T00:08:00.386Z,11.43
2023-04-10T00:13:05.180Z,9.23
2023-04-10T00:18:08.496Z,7.90
2023-04-10T00:23:11.751Z,10.27
2023-04-10T00:28:16.148Z,9.80
2023-04-10T00:33:19.408Z,10.57
2023-04-10T00:38:22.873Z,7.27
2023-04-10T00:43:26.110Z,8.17
2023-04-10T00:48:29.847Z,10.07
2023-04-10T00:53:33.142Z,6.67
2023-04-10T00:58:36.798Z,10.13
2023-04-10T01:03:44.473Z,9.37
2023-04-10T01:08:50.746Z,7.67
2023-04-10T01:14:17.025Z,11.23
2023-04-10T01:19:45.866Z,10.07
2023-04-10T01:25:26.512Z,10.27
2023-04-10T01:30:32.266Z,12.23
2023-04-10T01:35:36.652Z,10.27
2023-04-10T01:40:42.628Z,14.93
2023-04-10T01:45:48.648Z,14.03
2023-04-10T01:50:54.718Z,12.30
2023-04-10T01:55:58.166Z,12.53
2023-04-10T02:01:01.930Z,11.73
2023-04-10T02:06:36.220Z,9.60
2023-04-10T02:11:48.059Z,15.93
2023-04-10T02:16:55.552Z,10.37
2023-04-10T02:21:59.592Z,11.33
2023-04-10T02:27:03.080Z,9.30
2023-04-10T02:32:06.913Z,7.93
2023-04-10T02:37:10.615Z,8.90
2023-04-10T02:42:14.191Z,11.33
2023-04-10T02:47:19.182Z,9.13
2023-04-10T02:52:22.757Z,8.87
2023-04-10T02:57:26.619Z,10.83
2023-04-10T03:02:29.952Z,10.27
2023-04-10T03:07:34.294Z,9.63
2023-04-10T03:12:38.092Z,12.53
2023-04-10T03:17:41.571Z,11.20
2023-04-10T03:22:45.066Z,9.87
2023-04-10T03:27:48.318Z,15.43
2023-04-10T03:32:51.639Z,14.57
2023-04-10T03:37:54.914Z,15.50
2023-04-10T03:42:58.170Z,12.17
2023-04-10T03:48:01.974Z,10.40
2023-04-10T03:53:05.458Z,10.87
2023-04-10T03:58:08.708Z,13.80
2023-04-10T04:03:12.423Z,14.97
2023-04-10T04:08:16.456Z,12.53
2023-04-10T04:13:19.850Z,11.70
2023-04-10T04:18:23.246Z,11.03
2023-04-10T04:23:26.499Z,13.40
2023-04-10T04:28:30.479Z,13.07
2023-04-10T04:33:34.070Z,11.90
2023-04-10T04:38:37.182Z,12.10
2023-04-10T04:43:41.174Z,13.03
2023-04-10T04:48:44.416Z,17.10
2023-04-10T04:53:47.589Z,17.07
2023-04-10T04:58:50.971Z,14.17
2023-04-10T05:03:54.391Z,14.63
2023-04-10T05:08:57.684Z,16.27
2023-04-10T05:14:01.071Z,19.97
2023-04-10T05:19:04.360Z,22.33
2023-04-10T05:24:07.607Z,22.53
2023-04-10T05:29:11.062Z,21.43
2023-04-10T05:34:14.316Z,26.43
2023-04-10T05:39:18.397Z,26.10
2023-04-10T05:44:21.741Z,27.30
2023-04-10T05:49:25.372Z,27.37
2023-04-10T05:54:29.099Z,30.27
2023-04-10T05:59:32.457Z,25.27
2023-04-10T06:04:35.862Z,29.20
2023-04-10T06:09:39.367Z,32.80
2023-04-10T06:14:43.377Z,32.77
2023-04-10T06:19:46.798Z,28.73
2023-04-10T06:24:50.057Z,34.53
2023-04-10T06:29:53.758Z,34.33
2023-04-10T06:34:56.975Z,31.03
2023-04-10T06:40:10.937Z,32.13
2023-04-10T06:45:14.392Z,28.27
2023-04-10T06:50:17.778Z,29.90
2023-04-10T06:55:21.002Z,29.37
2023-04-10T07:00:25.162Z,28.40
2023-04-10T07:05:28.478Z,28.87
2023-04-10T07:10:31.958Z,25.83
2023-04-10T07:15:35.282Z,25.20
2023-04-10T07:20:38.631Z,26.07
2023-04-10T07:25:43.171Z,24.70
2023-04-10T07:30:46.522Z,22.47
2023-04-10T07:35:49.904Z,22.60
2023-04-10T07:40:59.913Z,18.20
2023-04-10T07:46:03.405Z,24.70
2023-04-10T07:51:11.779Z,21.17
2023-04-10T07:56:17.701Z,24.67
2023-04-10T08:01:21.348Z,17.80
2023-04-10T08:06:24.792Z,19.03
2023-04-10T08:11:31.026Z,20.50
2023-04-10T08:16:36.754Z,19.47
2023-04-10T08:21:40.443Z,18.70
2023-04-10T08:26:44.343Z,19.57
2023-04-10T08:31:47.963Z,20.13
2023-04-10T08:36:51.800Z,18.40
2023-04-10T08:41:55.739Z,19.03
2023-04-10T08:47:02.960Z,17.20
2023-04-10T08:52:10.118Z,17.90
2023-04-10T08:57:21.132Z,17.90
2023-04-10T09:02:25.504Z,19.50
2023-04-10T09:07:28.849Z,14.07
2023-04-10T09:12:45.288Z,13.27
2023-04-10T09:18:06.819Z,15.70
2023-04-10T09:23:22.547Z,15.57
2023-04-10T09:28:26.004Z,17.60
2023-04-10T09:33:30.513Z,13.90
2023-04-10T09:38:35.312Z,16.00
2023-04-10T09:43:39.542Z,13.90
2023-04-10T09:48:57.360Z,15.43
2023-04-10T09:54:01.511Z,12.53
2023-04-10T09:59:06.705Z,13.10
2023-04-10T10:04:10.433Z,13.80
2023-04-10T10:09:15.693Z,13.03
2023-04-10T10:14:20.565Z,13.63
2023-04-10T10:19:43.194Z,13.80
2023-04-10T10:24:48.214Z,10.03
2023-04-10T10:29:54.610Z,12.13
2023-04-10T10:34:58.138Z,10.57
2023-04-10T10:40:17.181Z,15.13
2023-04-10T10:45:30.288Z,13.93
2023-04-10T10:50:57.595Z,13.87
2023-04-10T10:56:26.296Z,13.77
2023-04-10T11:01:30.158Z,15.03
2023-04-10T11:06:51.593Z,11.53
2023-04-10T11:12:01.941Z,10.57
2023-04-10T11:17:05.321Z,13.70
2023-04-10T11:22:09.938Z,14.73
2023-04-10T11:27:44.287Z,13.23
2023-04-10T11:32:50.386Z,11.40
2023-04-10T11:37:53.565Z,11.50
2023-04-10T11:43:14.457Z,12.20
2023-04-10T11:48:17.886Z,12.30
2023-04-10T11:53:22.474Z,12.95
2023-04-10T11:58:30.876Z,10.77
2023-04-10T12:03:38.296Z,14.97
2023-04-10T12:08:46.680Z,11.93
2023-04-10T12:13:54.442Z,14.88
2023-04-10T12:18:58.267Z,11.13
2023-04-10T12:24:02.047Z,11.43
2023-04-10T12:29:06.775Z,12.38
2023-04-10T12:34:11.540Z,10.93
2023-04-10T12:46:09.004Z,11.55
2023-04-10T12:51:17.082Z,16.73
2023-04-10T12:56:25.513Z,12.40
2023-04-10T13:01:29.007Z,14.02
2023-04-10T13:06:32.600Z,10.80
2023-04-10T13:11:36.040Z,11.80
2023-04-10T13:16:39.276Z,10.25
2023-04-10T13:21:42.974Z,10.30
2023-04-10T13:26:46.077Z,8.75
2023-04-10T13:31:49.332Z,12.98
2023-04-10T13:36:52.852Z,12.15
2023-04-10T13:41:57.238Z,7.65
2023-04-10T13:47:00.981Z,7.68
2023-04-10T13:52:04.595Z,11.10
2023-04-10T13:57:07.811Z,9.68
2023-04-10T14:02:11.761Z,12.45
2023-04-10T14:07:15.312Z,11.48
2023-04-10T14:12:19.703Z,10.77
2023-04-10T14:17:23.919Z,12.30
2023-04-10T14:22:27.192Z,7.82
2023-04-10T14:27:30.538Z,7.97
2023-04-10T14:32:34.378Z,10.40
2023-04-10T14:37:37.885Z,7.28
2023-04-10T14:42:41.096Z,7.15
2023-04-10T14:47:44.431Z,6.57
2023-04-10T14:52:47.818Z,6.68
2023-04-10T14:57:51.441Z,7.40
2023-04-10T15:02:57.664Z,8.35
2023-04-10T15:08:01.300Z,8.25
2023-04-10T15:13:04.501Z,13.95
2023-04-10T15:18:07.850Z,6.70
2023-04-10T15:23:12.040Z,8.80
2023-04-10T15:28:15.270Z,8.63
2023-04-10T15:33:18.572Z,9.20
2023-04-10T15:38:22.158Z,9.82
2023-04-10T15:43:25.354Z,7.57
2023-04-10T15:48:29.436Z,8.57
2023-04-10T15:53:33.766Z,6.75
2023-04-10T15:58:37.193Z,7.78
2023-04-10T16:03:40.518Z,7.22
2023-04-10T16:08:43.797Z,7.40
2023-04-10T16:13:46.995Z,9.15
2023-04-10T16:18:50.449Z,8.05
2023-04-10T16:23:54.106Z,8.30
2023-04-10T16:28:57.515Z,6.70
2023-04-10T16:34:02.366Z,8.32
2023-04-10T16:39:07.862Z,10.85
2023-04-10T16:44:13.537Z,10.50
2023-04-10T16:49:17.052Z,12.00
2023-04-10T16:54:20.402Z,9.52
2023-04-10T16:59:23.957Z,11.82
2023-04-10T17:04:27.477Z,12.15
2023-04-10T17:09:32.329Z,11.15
2023-04-10T17:14:37.148Z,10.88
2023-04-10T17:19:40.962Z,12.45
2023-04-10T17:24:45.185Z,14.32
2023-04-10T17:29:48.511Z,15.45
2023-04-10T17:34:51.965Z,14.73
2023-04-10T17:39:55.752Z,12.00
2023-04-10T17:44:59.286Z,12.00
2023-04-10T17:50:05.741Z,12.23
2023-04-10T17:55:10.039Z,14.83
2023-04-10T18:00:18.672Z,17.93
2023-04-10T18:05:25.718Z,18.13
2023-04-10T18:10:29.786Z,19.37
2023-04-10T18:15:33.541Z,32.27
2023-04-10T18:20:36.809Z,17.90
2023-04-10T18:25:40.224Z,22.57
2023-04-10T18:30:43.782Z,17.73
2023-04-10T18:35:48.168Z,17.63
2023-04-10T18:40:55.061Z,18.43
2023-04-10T18:45:58.613Z,24.73
2023-04-10T18:51:02.941Z,21.00
2023-04-10T18:56:06.874Z,19.83
2023-04-10T19:01:12.915Z,22.03
2023-04-10T19:06:18.213Z,30.77
2023-04-10T19:11:23.743Z,28.97
2023-04-10T19:16:28.504Z,30.40
2023-04-10T19:21:33.864Z,31.03
2023-04-10T19:26:38.938Z,30.43
2023-04-10T19:31:46.937Z,28.50
2023-04-10T19:36:51.948Z,27.33
2023-04-10T19:41:56.911Z,29.63
2023-04-10T19:47:02.461Z,35.07
2023-04-10T19:52:07.569Z,44.80
2023-04-10T19:57:12.440Z,36.50
2023-04-10T20:02:20.442Z,34.50
2023-04-10T20:07:28.085Z,32.90
2023-04-10T20:12:35.662Z,34.10
2023-04-10T20:17:39.586Z,53.13
2023-04-10T20:22:44.347Z,64.23
2023-04-10T20:27:49.386Z,60.40
2023-04-10T20:32:53.976Z,59.83
2023-04-10T20:37:58.379Z,90.40
2023-04-10T20:43:01.972Z,124.77
2023-04-10T20:48:05.961Z,77.83
2023-04-10T20:53:09.479Z,37.40
2023-04-10T20:58:12.756Z,41.13
2023-04-10T21:03:16.625Z,75.70
2023-04-10T21:08:20.917Z,60.53
2023-04-10T21:13:24.357Z,56.47
2023-04-10T21:18:28.127Z,53.23
2023-04-10T21:23:31.817Z,47.13
2023-04-10T21:28:38.340Z,46.23
2023-04-10T21:33:43.218Z,44.67
2023-04-10T21:38:47.095Z,55.70
2023-04-10T21:43:50.388Z,52.73
2023-04-10T21:48:54.607Z,70.87
2023-04-10T21:53:57.987Z,66.77
2023-04-10T21:59:01.765Z,67.00
2023-04-10T22:04:05.786Z,61.00
2023-04-10T22:09:09.896Z,60.00
2023-04-10T22:14:17.990Z,52.87
2023-04-10T22:19:23.438Z,63.87
2023-04-10T22:24:26.783Z,63.13
2023-04-10T22:29:30.043Z,63.90
2023-04-10T22:34:33.354Z,62.20
2023-04-10T22:39:36.582Z,65.60
2023-04-10T22:44:39.914Z,60.57
2023-04-10T22:49:43.114Z,60.63
2023-04-10T22:54:46.799Z,72.10
2023-04-10T22:59:50.218Z,60.70
2023-04-10T23:04:58.081Z,68.93
2023-04-10T23:10:01.470Z,69.67
2023-04-10T23:15:06.526Z,70.33
2023-04-10T23:20:10.263Z,100.37
2023-04-10T23:25:14.706Z,93.37
2023-04-10T23:30:17.928Z,84.03
2023-04-10T23:35:21.427Z,83.10
2023-04-10T23:40:24.741Z,97.50
2023-04-10T23:45:28.217Z,69.73
2023-04-10T23:50:31.490Z,67.23
2023-04-10T23:55:36.081Z,66.40
